TOM888 LEMH-EICK
Flight info
| Callsign | TOM888 |
|---|---|
| Flight time | 2h 18m |
| Altitude | 36000 |
| Route | MJV N861 ADX N863 GIROM DCT GONUP DCT MANAK UT183 BAGAD DCT DOLUR DCT EVCOR N160 LEDGO DCT ERTER |
| Aircraft | B738/M-SDE2E3FGHIRWXY/LB1 |
Departure
| Time | 2026-04-29 13:56 |
|---|---|
| Airport | Menorca Airport (LEMH) |
Arrival
| Time | 2026-04-29 16:14 |
|---|---|
| Airport | Cork International Airport (EICK) |
| Time | Latitude | Longitude | Altitude | Speed | Heading |
|---|---|---|---|---|---|
| 2026-04-29 13:25 | 39.86425 | 4.22391 | 285 ft | 0 kts | 99° |
| 2026-04-29 13:49 | 39.86428 | 4.22361 | 288 ft | 4 kts | 89° |
| 2026-04-29 13:49 | 39.86424 | 4.22327 | 295 ft | 4 kts | 64° |
| 2026-04-29 13:49 | 39.86409 | 4.22305 | 293 ft | 3 kts | 12° |
| 2026-04-29 13:50 | 39.86406 | 4.22304 | 292 ft | 1 kts | 9° |
| 2026-04-29 13:52 | 39.86419 | 4.22307 | 293 ft | 5 kts | 9° |
| 2026-04-29 13:52 | 39.86485 | 4.22321 | 287 ft | 13 kts | 9° |
| 2026-04-29 13:53 | 39.86540 | 4.22253 | 294 ft | 13 kts | 278° |
| 2026-04-29 13:53 | 39.86585 | 4.22172 | 295 ft | 13 kts | 358° |
| 2026-04-29 13:53 | 39.86680 | 4.22190 | 295 ft | 15 kts | 9° |
| 2026-04-29 13:53 | 39.86794 | 4.22214 | 297 ft | 20 kts | 9° |
| 2026-04-29 13:54 | 39.86949 | 4.22246 | 302 ft | 25 kts | 8° |
| 2026-04-29 13:54 | 39.87137 | 4.22284 | 306 ft | 28 kts | 9° |
| 2026-04-29 13:54 | 39.87323 | 4.22322 | 310 ft | 26 kts | 9° |
| 2026-04-29 13:54 | 39.87451 | 4.22308 | 315 ft | 13 kts | 298° |
| 2026-04-29 13:55 | 39.87434 | 4.22201 | 312 ft | 13 kts | 242° |
| 2026-04-29 13:55 | 39.87383 | 4.22118 | 311 ft | 9 kts | 263° |
| 2026-04-29 13:55 | 39.87353 | 4.22089 | 310 ft | 3 kts | 189° |
| 2026-04-29 13:55 | 39.87285 | 4.22075 | 310 ft | 31 kts | 189° |
| 2026-04-29 13:56 | 39.86810 | 4.21979 | 302 ft | 105 kts | 188° |
| 2026-04-29 13:56 | 39.85878 | 4.21789 | 303 ft | 165 kts | 187° |
| 2026-04-29 13:56 | 39.84705 | 4.21506 | 869 ft | 171 kts | 186° |
| 2026-04-29 13:56 | 39.83503 | 4.21278 | 1639 ft | 172 kts | 183° |
| 2026-04-29 13:57 | 39.82336 | 4.21093 | 2561 ft | 174 kts | 183° |
| 2026-04-29 13:57 | 39.81047 | 4.20884 | 2876 ft | 204 kts | 185° |
| 2026-04-29 13:57 | 39.79555 | 4.20629 | 3127 ft | 227 kts | 184° |
| 2026-04-29 13:57 | 39.77946 | 4.20350 | 3585 ft | 241 kts | 186° |
| 2026-04-29 13:58 | 39.76212 | 4.20047 | 4021 ft | 257 kts | 186° |
| 2026-04-29 13:58 | 39.74420 | 4.19714 | 4789 ft | 264 kts | 192° |
| 2026-04-29 13:58 | 39.72798 | 4.18682 | 5757 ft | 263 kts | 219° |
| 2026-04-29 13:58 | 39.71672 | 4.16800 | 6606 ft | 268 kts | 242° |
| 2026-04-29 13:59 | 39.71107 | 4.14489 | 7424 ft | 272 kts | 262° |
| 2026-04-29 13:59 | 39.71243 | 4.12022 | 8254 ft | 277 kts | 281° |
| 2026-04-29 13:59 | 39.71689 | 4.09583 | 9114 ft | 279 kts | 282° |
| 2026-04-29 13:59 | 39.72075 | 4.07146 | 9923 ft | 280 kts | 271° |
| 2026-04-29 14:00 | 39.71789 | 4.04633 | 10427 ft | 291 kts | 251° |
| 2026-04-29 14:00 | 39.70825 | 4.02212 | 10601 ft | 315 kts | 233° |
| 2026-04-29 14:00 | 39.69417 | 3.99895 | 10775 ft | 338 kts | 231° |
| 2026-04-29 14:00 | 39.67885 | 3.97497 | 11187 ft | 351 kts | 230° |
| 2026-04-29 14:01 | 39.66305 | 3.95051 | 11845 ft | 355 kts | 230° |
| 2026-04-29 14:01 | 39.64720 | 3.92592 | 12589 ft | 357 kts | 230° |
| 2026-04-29 14:01 | 39.63126 | 3.90108 | 13331 ft | 360 kts | 230° |
| 2026-04-29 14:01 | 39.61522 | 3.87598 | 14009 ft | 363 kts | 230° |
| 2026-04-29 14:02 | 39.59906 | 3.85062 | 14638 ft | 367 kts | 230° |
| 2026-04-29 14:02 | 39.58299 | 3.82537 | 15257 ft | 370 kts | 231° |
| 2026-04-29 14:02 | 39.56655 | 3.79952 | 15878 ft | 373 kts | 231° |
| 2026-04-29 14:02 | 39.54993 | 3.77341 | 16473 ft | 377 kts | 230° |
| 2026-04-29 14:03 | 39.53315 | 3.74704 | 17068 ft | 381 kts | 231° |
| 2026-04-29 14:03 | 39.51620 | 3.72044 | 17672 ft | 385 kts | 231° |
| 2026-04-29 14:03 | 39.49911 | 3.69365 | 18299 ft | 387 kts | 230° |
| 2026-04-29 14:03 | 39.48190 | 3.66668 | 18808 ft | 390 kts | 231° |
| 2026-04-29 14:04 | 39.46450 | 3.63944 | 19287 ft | 395 kts | 231° |
| 2026-04-29 14:04 | 39.44694 | 3.61197 | 19769 ft | 398 kts | 231° |
| 2026-04-29 14:04 | 39.42942 | 3.58460 | 20240 ft | 402 kts | 231° |
| 2026-04-29 14:04 | 39.41151 | 3.55663 | 20719 ft | 406 kts | 231° |
| 2026-04-29 14:05 | 39.39343 | 3.52841 | 21176 ft | 409 kts | 231° |
| 2026-04-29 14:05 | 39.37518 | 3.49996 | 21638 ft | 413 kts | 231° |
| 2026-04-29 14:05 | 39.35696 | 3.47114 | 22082 ft | 416 kts | 234° |
| 2026-04-29 14:05 | 39.34384 | 3.43786 | 22470 ft | 419 kts | 253° |
| 2026-04-29 14:06 | 39.33853 | 3.40084 | 22954 ft | 421 kts | 267° |
| 2026-04-29 14:06 | 39.34097 | 3.36309 | 23389 ft | 424 kts | 280° |
| 2026-04-29 14:06 | 39.34680 | 3.32558 | 23775 ft | 427 kts | 281° |
| 2026-04-29 14:06 | 39.35297 | 3.28841 | 24124 ft | 430 kts | 282° |
| 2026-04-29 14:07 | 39.35926 | 3.25054 | 24490 ft | 433 kts | 282° |
| 2026-04-29 14:07 | 39.36547 | 3.21239 | 24863 ft | 435 kts | 281° |
| 2026-04-29 14:07 | 39.37158 | 3.17402 | 25236 ft | 437 kts | 281° |
| 2026-04-29 14:07 | 39.37760 | 3.13544 | 25596 ft | 439 kts | 281° |
| 2026-04-29 14:08 | 39.38358 | 3.09664 | 25941 ft | 441 kts | 281° |
| 2026-04-29 14:08 | 39.38955 | 3.05764 | 26284 ft | 444 kts | 281° |
| 2026-04-29 14:08 | 39.39554 | 3.01845 | 26643 ft | 445 kts | 280° |
| 2026-04-29 14:08 | 39.40152 | 2.97918 | 26956 ft | 447 kts | 281° |
| 2026-04-29 14:09 | 39.40746 | 2.94013 | 27267 ft | 449 kts | 280° |
| 2026-04-29 14:09 | 39.41348 | 2.90046 | 27606 ft | 451 kts | 280° |
| 2026-04-29 14:09 | 39.41951 | 2.86067 | 27971 ft | 451 kts | 280° |
| 2026-04-29 14:09 | 39.42556 | 2.82073 | 28216 ft | 455 kts | 281° |
| 2026-04-29 14:10 | 39.43163 | 2.78048 | 28458 ft | 458 kts | 281° |
| 2026-04-29 14:10 | 39.43887 | 2.74028 | 28687 ft | 461 kts | 288° |
| 2026-04-29 14:10 | 39.45053 | 2.70169 | 29231 ft | 457 kts | 292° |
| 2026-04-29 14:10 | 39.46321 | 2.66445 | 29964 ft | 450 kts | 293° |
| 2026-04-29 14:11 | 39.47563 | 2.62773 | 30126 ft | 454 kts | 292° |
| 2026-04-29 14:11 | 39.48805 | 2.58989 | 30233 ft | 459 kts | 292° |
| 2026-04-29 14:11 | 39.50023 | 2.55172 | 30534 ft | 458 kts | 291° |
| 2026-04-29 14:11 | 39.51220 | 2.51362 | 30982 ft | 455 kts | 291° |
| 2026-04-29 14:12 | 39.52403 | 2.47584 | 31454 ft | 451 kts | 291° |
| 2026-04-29 14:12 | 39.53579 | 2.43831 | 31833 ft | 449 kts | 292° |
| 2026-04-29 14:12 | 39.54982 | 2.40212 | 32118 ft | 451 kts | 300° |
| 2026-04-29 14:12 | 39.56785 | 2.36888 | 32396 ft | 452 kts | 309° |
| 2026-04-29 14:13 | 39.58928 | 2.33894 | 32677 ft | 453 kts | 313° |
| 2026-04-29 14:13 | 39.61088 | 2.31007 | 33018 ft | 452 kts | 313° |
| 2026-04-29 14:13 | 39.63277 | 2.28096 | 33396 ft | 450 kts | 312° |
| 2026-04-29 14:13 | 39.65458 | 2.25176 | 33604 ft | 452 kts | 312° |
| 2026-04-29 14:14 | 39.67641 | 2.22230 | 33796 ft | 453 kts | 312° |
| 2026-04-29 14:14 | 39.69816 | 2.19273 | 34099 ft | 452 kts | 311° |
| 2026-04-29 14:14 | 39.71975 | 2.16326 | 34431 ft | 449 kts | 311° |
| 2026-04-29 14:14 | 39.74117 | 2.13393 | 34729 ft | 447 kts | 311° |
| 2026-04-29 14:15 | 39.76256 | 2.10458 | 34959 ft | 447 kts | 311° |
| 2026-04-29 14:15 | 39.78365 | 2.07562 | 35178 ft | 447 kts | 311° |
| 2026-04-29 14:15 | 39.80501 | 2.04627 | 35403 ft | 447 kts | 311° |
| 2026-04-29 14:15 | 39.82638 | 2.01689 | 35602 ft | 447 kts | 311° |
| 2026-04-29 14:16 | 39.84770 | 1.98754 | 35849 ft | 446 kts | 311° |
| 2026-04-29 14:16 | 39.86904 | 1.95815 | 35927 ft | 449 kts | 311° |
| 2026-04-29 14:16 | 39.91197 | 1.89891 | 35922 ft | 450 kts | 311° |
| 2026-04-29 14:17 | 39.95443 | 1.84025 | 35933 ft | 446 kts | 311° |
| 2026-04-29 14:17 | 39.99797 | 1.78294 | 35927 ft | 446 kts | 319° |
| 2026-04-29 14:18 | 40.05148 | 1.74191 | 35930 ft | 450 kts | 336° |
| 2026-04-29 14:18 | 40.10990 | 1.71250 | 35947 ft | 450 kts | 337° |
| 2026-04-29 14:19 | 40.16851 | 1.68329 | 35931 ft | 452 kts | 336° |
| 2026-04-29 14:19 | 40.22684 | 1.65357 | 35951 ft | 454 kts | 336° |
| 2026-04-29 14:20 | 40.28576 | 1.62317 | 35942 ft | 456 kts | 336° |
| 2026-04-29 14:20 | 40.34496 | 1.59253 | 35948 ft | 459 kts | 336° |
| 2026-04-29 14:21 | 40.40448 | 1.56168 | 35949 ft | 461 kts | 336° |
| 2026-04-29 14:21 | 40.46384 | 1.53087 | 35949 ft | 462 kts | 336° |
| 2026-04-29 14:22 | 40.52376 | 1.49971 | 35945 ft | 464 kts | 336° |
| 2026-04-29 14:22 | 40.58385 | 1.46840 | 35965 ft | 465 kts | 336° |
| 2026-04-29 14:23 | 40.64401 | 1.43701 | 35959 ft | 465 kts | 336° |
| 2026-04-29 14:23 | 40.70415 | 1.40563 | 35954 ft | 465 kts | 336° |
| 2026-04-29 14:24 | 40.76386 | 1.37443 | 35962 ft | 464 kts | 336° |
| 2026-04-29 14:24 | 40.82386 | 1.34299 | 35958 ft | 463 kts | 336° |
| 2026-04-29 14:25 | 40.88371 | 1.31158 | 35961 ft | 462 kts | 336° |
| 2026-04-29 14:25 | 40.94344 | 1.28015 | 35960 ft | 462 kts | 336° |
| 2026-04-29 14:26 | 41.00268 | 1.24893 | 35970 ft | 461 kts | 336° |
| 2026-04-29 14:26 | 41.06231 | 1.21743 | 35973 ft | 462 kts | 336° |
| 2026-04-29 14:27 | 41.12200 | 1.18586 | 35967 ft | 462 kts | 336° |
| 2026-04-29 14:28 | 41.21688 | 1.16238 | 35967 ft | 467 kts | 355° |
| 2026-04-29 14:28 | 41.28143 | 1.15714 | 35968 ft | 468 kts | 354° |
| 2026-04-29 14:29 | 41.34647 | 1.15048 | 35967 ft | 469 kts | 354° |
| 2026-04-29 14:29 | 41.41162 | 1.14367 | 35963 ft | 470 kts | 354° |
| 2026-04-29 14:30 | 41.47694 | 1.13694 | 35947 ft | 472 kts | 354° |
| 2026-04-29 14:30 | 41.54250 | 1.13016 | 35945 ft | 473 kts | 354° |
| 2026-04-29 14:31 | 41.60779 | 1.12304 | 35946 ft | 474 kts | 354° |
| 2026-04-29 14:31 | 41.67365 | 1.11569 | 35934 ft | 476 kts | 354° |
| 2026-04-29 14:32 | 41.73972 | 1.10851 | 35917 ft | 477 kts | 354° |
| 2026-04-29 14:32 | 41.80591 | 1.10162 | 35905 ft | 477 kts | 354° |
| 2026-04-29 14:33 | 41.87172 | 1.09477 | 35907 ft | 478 kts | 354° |
| 2026-04-29 14:33 | 41.93806 | 1.08779 | 35901 ft | 478 kts | 354° |
| 2026-04-29 14:34 | 42.00449 | 1.08077 | 35890 ft | 479 kts | 354° |
| 2026-04-29 14:34 | 42.07087 | 1.07375 | 35902 ft | 478 kts | 354° |
| 2026-04-29 14:35 | 42.13674 | 1.06677 | 35916 ft | 477 kts | 354° |
| 2026-04-29 14:35 | 42.20291 | 1.05961 | 35982 ft | 476 kts | 354° |
| 2026-04-29 14:36 | 42.26895 | 1.05231 | 35967 ft | 476 kts | 354° |
| 2026-04-29 14:36 | 42.33484 | 1.04505 | 35985 ft | 474 kts | 354° |
| 2026-04-29 14:37 | 42.40017 | 1.03785 | 35980 ft | 474 kts | 354° |
| 2026-04-29 14:37 | 42.46596 | 1.03061 | 35974 ft | 475 kts | 354° |
| 2026-04-29 14:38 | 42.53192 | 1.02348 | 35969 ft | 476 kts | 354° |
| 2026-04-29 14:38 | 42.59810 | 1.01630 | 35976 ft | 478 kts | 354° |
| 2026-04-29 14:39 | 42.66444 | 1.00908 | 35968 ft | 479 kts | 354° |
| 2026-04-29 14:39 | 42.73061 | 1.00185 | 35948 ft | 481 kts | 354° |
| 2026-04-29 14:40 | 42.79708 | 0.99145 | 35926 ft | 480 kts | 345° |
| 2026-04-29 14:40 | 42.86171 | 0.96912 | 35913 ft | 480 kts | 343° |
| 2026-04-29 14:41 | 42.92632 | 0.94548 | 35898 ft | 481 kts | 343° |
| 2026-04-29 14:41 | 42.99067 | 0.92272 | 35903 ft | 482 kts | 343° |
| 2026-04-29 14:42 | 43.05565 | 0.90023 | 35901 ft | 481 kts | 344° |
| 2026-04-29 14:42 | 43.12059 | 0.87778 | 35886 ft | 481 kts | 344° |
| 2026-04-29 14:43 | 43.18541 | 0.85530 | 35876 ft | 480 kts | 344° |
| 2026-04-29 14:43 | 43.25006 | 0.83279 | 35878 ft | 479 kts | 344° |
| 2026-04-29 14:44 | 43.31409 | 0.81045 | 35880 ft | 478 kts | 344° |
| 2026-04-29 14:44 | 43.37843 | 0.78795 | 35888 ft | 477 kts | 344° |
| 2026-04-29 14:45 | 43.44272 | 0.76543 | 35892 ft | 477 kts | 344° |
| 2026-04-29 14:45 | 43.50517 | 0.73583 | 35903 ft | 474 kts | 334° |
| 2026-04-29 14:46 | 43.56518 | 0.69954 | 35893 ft | 474 kts | 333° |
| 2026-04-29 14:46 | 43.62555 | 0.66265 | 35897 ft | 475 kts | 334° |
| 2026-04-29 14:47 | 43.68630 | 0.62624 | 35901 ft | 476 kts | 334° |
| 2026-04-29 14:47 | 43.74727 | 0.59007 | 35892 ft | 477 kts | 334° |
| 2026-04-29 14:48 | 43.80836 | 0.55387 | 35891 ft | 478 kts | 334° |
| 2026-04-29 14:48 | 43.86907 | 0.51778 | 35911 ft | 478 kts | 334° |
| 2026-04-29 14:49 | 43.93027 | 0.48130 | 35908 ft | 479 kts | 334° |
| 2026-04-29 14:49 | 43.99144 | 0.44474 | 35917 ft | 479 kts | 334° |
| 2026-04-29 14:50 | 44.05224 | 0.40833 | 35909 ft | 479 kts | 334° |
| 2026-04-29 14:50 | 44.11341 | 0.37161 | 35917 ft | 479 kts | 334° |
| 2026-04-29 14:51 | 44.17456 | 0.33482 | 35910 ft | 479 kts | 334° |
| 2026-04-29 14:51 | 44.23575 | 0.29791 | 35908 ft | 479 kts | 334° |
| 2026-04-29 14:52 | 44.29651 | 0.26119 | 35903 ft | 479 kts | 334° |
| 2026-04-29 14:52 | 44.35759 | 0.22420 | 35900 ft | 478 kts | 333° |
| 2026-04-29 14:53 | 44.41866 | 0.18711 | 35905 ft | 478 kts | 333° |
| 2026-04-29 14:53 | 44.47969 | 0.14997 | 35902 ft | 478 kts | 333° |
| 2026-04-29 14:54 | 44.54064 | 0.11280 | 35904 ft | 478 kts | 333° |
| 2026-04-29 14:54 | 44.60118 | 0.07579 | 35898 ft | 478 kts | 333° |
| 2026-04-29 14:55 | 44.66211 | 0.03846 | 35904 ft | 477 kts | 333° |
| 2026-04-29 14:55 | 44.72296 | 0.00108 | 35899 ft | 477 kts | 333° |
| 2026-04-29 14:56 | 44.78383 | -0.03639 | 35901 ft | 478 kts | 333° |
| 2026-04-29 14:56 | 44.84433 | -0.07372 | 35903 ft | 478 kts | 333° |
| 2026-04-29 14:57 | 44.90521 | -0.11137 | 35901 ft | 478 kts | 333° |
| 2026-04-29 14:57 | 44.96616 | -0.14915 | 35902 ft | 479 kts | 333° |
| 2026-04-29 14:58 | 45.02716 | -0.18705 | 35905 ft | 479 kts | 333° |
| 2026-04-29 14:58 | 45.08819 | -0.22506 | 35903 ft | 479 kts | 333° |
| 2026-04-29 14:59 | 45.14883 | -0.26291 | 35905 ft | 480 kts | 333° |
| 2026-04-29 14:59 | 45.20992 | -0.30113 | 35908 ft | 480 kts | 333° |
| 2026-04-29 15:00 | 45.27101 | -0.33944 | 35900 ft | 480 kts | 333° |
| 2026-04-29 15:00 | 45.33213 | -0.37787 | 35903 ft | 480 kts | 333° |
| 2026-04-29 15:01 | 45.39322 | -0.41636 | 35912 ft | 480 kts | 333° |
| 2026-04-29 15:01 | 45.45385 | -0.45465 | 35905 ft | 480 kts | 333° |
| 2026-04-29 15:02 | 45.51491 | -0.49331 | 35910 ft | 480 kts | 333° |
| 2026-04-29 15:02 | 45.57594 | -0.53204 | 35910 ft | 480 kts | 333° |
| 2026-04-29 15:03 | 45.63691 | -0.57083 | 35911 ft | 479 kts | 333° |
| 2026-04-29 15:03 | 45.69737 | -0.60938 | 35906 ft | 479 kts | 333° |
| 2026-04-29 15:04 | 45.75820 | -0.64826 | 35906 ft | 478 kts | 333° |
| 2026-04-29 15:04 | 45.81896 | -0.68720 | 35905 ft | 478 kts | 333° |
| 2026-04-29 15:05 | 45.87963 | -0.72616 | 35904 ft | 478 kts | 333° |
| 2026-04-29 15:05 | 45.93985 | -0.76493 | 35906 ft | 477 kts | 333° |
| 2026-04-29 15:06 | 46.00039 | -0.80401 | 35923 ft | 477 kts | 332° |
| 2026-04-29 15:06 | 46.06097 | -0.84320 | 35915 ft | 477 kts | 332° |
| 2026-04-29 15:07 | 46.12154 | -0.88249 | 35911 ft | 477 kts | 332° |
| 2026-04-29 15:07 | 46.18166 | -0.92157 | 35916 ft | 477 kts | 332° |
| 2026-04-29 15:08 | 46.23864 | -0.96896 | 35912 ft | 469 kts | 317° |
| 2026-04-29 15:08 | 46.28920 | -1.02835 | 35912 ft | 468 kts | 316° |
| 2026-04-29 15:09 | 46.33961 | -1.08806 | 35913 ft | 469 kts | 316° |
| 2026-04-29 15:09 | 46.39000 | -1.14690 | 35921 ft | 469 kts | 317° |
| 2026-04-29 15:10 | 46.44086 | -1.20605 | 35945 ft | 469 kts | 317° |
| 2026-04-29 15:10 | 46.49170 | -1.26531 | 35936 ft | 469 kts | 317° |
| 2026-04-29 15:11 | 46.54248 | -1.32469 | 35935 ft | 469 kts | 317° |
| 2026-04-29 15:11 | 46.59288 | -1.38381 | 35938 ft | 468 kts | 316° |
| 2026-04-29 15:12 | 46.63957 | -1.44885 | 35945 ft | 463 kts | 309° |
| 2026-04-29 15:12 | 46.68356 | -1.51733 | 35942 ft | 463 kts | 308° |
| 2026-04-29 15:13 | 46.72770 | -1.58572 | 35950 ft | 464 kts | 309° |
| 2026-04-29 15:13 | 46.77197 | -1.65341 | 35935 ft | 465 kts | 309° |
| 2026-04-29 15:14 | 46.81666 | -1.72154 | 35928 ft | 464 kts | 309° |
| 2026-04-29 15:14 | 46.86129 | -1.78978 | 35920 ft | 464 kts | 309° |
| 2026-04-29 15:15 | 46.90581 | -1.85807 | 35912 ft | 464 kts | 309° |
| 2026-04-29 15:15 | 46.95022 | -1.92638 | 35912 ft | 463 kts | 309° |
| 2026-04-29 15:16 | 46.99430 | -1.99434 | 35912 ft | 463 kts | 309° |
| 2026-04-29 15:16 | 47.03903 | -2.06232 | 35935 ft | 464 kts | 310° |
| 2026-04-29 15:17 | 47.08450 | -2.12948 | 35931 ft | 464 kts | 310° |
| 2026-04-29 15:17 | 47.13002 | -2.19682 | 35935 ft | 465 kts | 310° |
| 2026-04-29 15:18 | 47.17545 | -2.26450 | 35934 ft | 465 kts | 310° |
| 2026-04-29 15:18 | 47.22051 | -2.33194 | 35938 ft | 466 kts | 310° |
| 2026-04-29 15:19 | 47.26588 | -2.40005 | 35940 ft | 466 kts | 310° |
| 2026-04-29 15:19 | 47.31126 | -2.46833 | 35941 ft | 467 kts | 310° |
| 2026-04-29 15:20 | 47.35671 | -2.53690 | 35931 ft | 468 kts | 310° |
| 2026-04-29 15:20 | 47.40189 | -2.60522 | 35928 ft | 468 kts | 310° |
| 2026-04-29 15:21 | 47.44729 | -2.67406 | 35931 ft | 467 kts | 310° |
| 2026-04-29 15:21 | 47.49255 | -2.74289 | 35935 ft | 467 kts | 310° |
| 2026-04-29 15:22 | 47.53775 | -2.81179 | 35941 ft | 466 kts | 310° |
| 2026-04-29 15:22 | 47.58308 | -2.88050 | 35932 ft | 467 kts | 313° |
| 2026-04-29 15:23 | 47.63406 | -2.93990 | 35961 ft | 471 kts | 320° |
| 2026-04-29 15:23 | 47.68744 | -2.99670 | 35943 ft | 473 kts | 321° |
| 2026-04-29 15:24 | 47.74076 | -3.05399 | 35945 ft | 473 kts | 320° |
| 2026-04-29 15:24 | 47.79383 | -3.11204 | 35937 ft | 474 kts | 320° |
| 2026-04-29 15:25 | 47.84689 | -3.17062 | 35944 ft | 475 kts | 320° |
| 2026-04-29 15:25 | 47.89966 | -3.22908 | 35940 ft | 476 kts | 320° |
| 2026-04-29 15:26 | 47.95284 | -3.28811 | 35940 ft | 477 kts | 320° |
| 2026-04-29 15:26 | 48.00613 | -3.34740 | 35936 ft | 478 kts | 320° |
| 2026-04-29 15:27 | 48.05946 | -3.40688 | 35974 ft | 479 kts | 320° |
| 2026-04-29 15:27 | 48.11256 | -3.46626 | 35953 ft | 480 kts | 320° |
| 2026-04-29 15:28 | 48.16613 | -3.52633 | 35943 ft | 482 kts | 320° |
| 2026-04-29 15:28 | 48.21976 | -3.58663 | 35946 ft | 482 kts | 320° |
| 2026-04-29 15:29 | 48.27343 | -3.64713 | 35943 ft | 483 kts | 320° |
| 2026-04-29 15:30 | 48.38047 | -3.76829 | 35938 ft | 484 kts | 320° |
| 2026-04-29 15:30 | 48.43412 | -3.82926 | 35948 ft | 483 kts | 320° |
| 2026-04-29 15:31 | 48.48770 | -3.89030 | 35985 ft | 482 kts | 320° |
| 2026-04-29 15:31 | 48.54123 | -3.95148 | 35979 ft | 483 kts | 320° |
| 2026-04-29 15:32 | 48.59439 | -4.01240 | 35962 ft | 483 kts | 320° |
| 2026-04-29 15:32 | 48.64795 | -4.07393 | 35969 ft | 484 kts | 320° |
| 2026-04-29 15:33 | 48.70161 | -4.13575 | 35969 ft | 485 kts | 320° |
| 2026-04-29 15:33 | 48.75524 | -4.19770 | 35971 ft | 485 kts | 320° |
| 2026-04-29 15:34 | 48.80896 | -4.25993 | 35967 ft | 486 kts | 320° |
| 2026-04-29 15:34 | 48.86232 | -4.32191 | 35972 ft | 486 kts | 320° |
| 2026-04-29 15:35 | 48.91601 | -4.38446 | 35975 ft | 487 kts | 320° |
| 2026-04-29 15:35 | 48.96976 | -4.44724 | 35974 ft | 488 kts | 320° |
| 2026-04-29 15:36 | 49.01444 | -4.49957 | 35973 ft | 488 kts | 320° |
| 2026-04-29 15:36 | 49.07694 | -4.57296 | 35972 ft | 488 kts | 320° |
| 2026-04-29 15:37 | 49.13071 | -4.63630 | 35980 ft | 488 kts | 320° |
| 2026-04-29 15:37 | 49.17538 | -4.68905 | 35985 ft | 488 kts | 320° |
| 2026-04-29 15:38 | 49.22912 | -4.75269 | 35979 ft | 489 kts | 320° |
| 2026-04-29 15:38 | 49.29157 | -4.82686 | 35994 ft | 489 kts | 320° |
| 2026-04-29 15:39 | 49.33659 | -4.88048 | 35998 ft | 489 kts | 320° |
| 2026-04-29 15:39 | 49.38999 | -4.94426 | 35998 ft | 490 kts | 320° |
| 2026-04-29 15:40 | 49.44373 | -5.00862 | 35999 ft | 490 kts | 320° |
| 2026-04-29 15:40 | 49.49726 | -5.07364 | 36001 ft | 490 kts | 317° |
| 2026-04-29 15:41 | 49.54860 | -5.14255 | 36004 ft | 489 kts | 315° |
| 2026-04-29 15:41 | 49.59882 | -5.21232 | 36013 ft | 490 kts | 315° |
| 2026-04-29 15:42 | 49.64957 | -5.28251 | 36005 ft | 490 kts | 316° |
| 2026-04-29 15:42 | 49.70051 | -5.35255 | 36011 ft | 490 kts | 316° |
| 2026-04-29 15:43 | 49.75149 | -5.42263 | 36031 ft | 491 kts | 316° |
| 2026-04-29 15:43 | 49.80215 | -5.49247 | 36023 ft | 492 kts | 316° |
| 2026-04-29 15:44 | 49.85318 | -5.56305 | 36022 ft | 492 kts | 316° |
| 2026-04-29 15:44 | 49.90418 | -5.63382 | 36027 ft | 492 kts | 316° |
| 2026-04-29 15:45 | 49.95512 | -5.70471 | 36021 ft | 492 kts | 316° |
| 2026-04-29 15:45 | 50.00570 | -5.77532 | 36022 ft | 492 kts | 316° |
| 2026-04-29 15:46 | 50.05655 | -5.84650 | 36017 ft | 492 kts | 316° |
| 2026-04-29 15:46 | 50.10735 | -5.91783 | 36024 ft | 492 kts | 316° |
| 2026-04-29 15:47 | 50.15811 | -5.98932 | 36037 ft | 492 kts | 316° |
| 2026-04-29 15:47 | 50.20886 | -6.06101 | 36035 ft | 492 kts | 316° |
| 2026-04-29 15:48 | 50.25922 | -6.13236 | 36039 ft | 492 kts | 316° |
| 2026-04-29 15:48 | 50.30989 | -6.20437 | 36043 ft | 492 kts | 316° |
| 2026-04-29 15:49 | 50.36053 | -6.27654 | 36050 ft | 492 kts | 316° |
| 2026-04-29 15:49 | 50.41112 | -6.34887 | 36049 ft | 493 kts | 316° |
| 2026-04-29 15:50 | 50.46138 | -6.42094 | 36053 ft | 493 kts | 316° |
| 2026-04-29 15:50 | 50.51192 | -6.49364 | 36054 ft | 493 kts | 316° |
| 2026-04-29 15:51 | 50.56261 | -6.56676 | 35645 ft | 500 kts | 316° |
| 2026-04-29 15:51 | 50.58828 | -6.60389 | 35044 ft | 501 kts | 316° |
| 2026-04-29 15:51 | 50.61390 | -6.64100 | 34430 ft | 501 kts | 315° |
| 2026-04-29 15:51 | 50.63960 | -6.67827 | 33693 ft | 503 kts | 315° |
| 2026-04-29 15:52 | 50.66534 | -6.71568 | 32948 ft | 504 kts | 315° |
| 2026-04-29 15:52 | 50.69075 | -6.75265 | 32241 ft | 504 kts | 315° |
| 2026-04-29 15:52 | 50.71650 | -6.79019 | 31528 ft | 504 kts | 316° |
| 2026-04-29 15:52 | 50.74224 | -6.82776 | 30799 ft | 504 kts | 316° |
| 2026-04-29 15:53 | 50.76798 | -6.86539 | 30192 ft | 503 kts | 315° |
| 2026-04-29 15:53 | 50.79351 | -6.90276 | 29587 ft | 498 kts | 315° |
| 2026-04-29 15:53 | 50.81878 | -6.93981 | 29016 ft | 492 kts | 315° |
| 2026-04-29 15:53 | 50.84373 | -6.97644 | 28490 ft | 487 kts | 315° |
| 2026-04-29 15:54 | 50.86839 | -7.01273 | 27968 ft | 482 kts | 315° |
| 2026-04-29 15:54 | 50.89281 | -7.04870 | 27438 ft | 477 kts | 315° |
| 2026-04-29 15:54 | 50.91666 | -7.08390 | 26950 ft | 473 kts | 316° |
| 2026-04-29 15:54 | 50.94061 | -7.11929 | 26422 ft | 469 kts | 316° |
| 2026-04-29 15:55 | 50.96433 | -7.15447 | 25909 ft | 465 kts | 316° |
| 2026-04-29 15:55 | 50.98781 | -7.18939 | 25400 ft | 461 kts | 316° |
| 2026-04-29 15:55 | 51.01112 | -7.22414 | 24911 ft | 458 kts | 316° |
| 2026-04-29 15:55 | 51.03425 | -7.25867 | 24405 ft | 455 kts | 316° |
| 2026-04-29 15:56 | 51.05722 | -7.29302 | 23912 ft | 452 kts | 315° |
| 2026-04-29 15:56 | 51.08005 | -7.32720 | 23334 ft | 450 kts | 315° |
| 2026-04-29 15:56 | 51.10274 | -7.36122 | 22786 ft | 446 kts | 316° |
| 2026-04-29 15:56 | 51.12490 | -7.39448 | 22297 ft | 442 kts | 316° |
| 2026-04-29 15:57 | 51.14713 | -7.42790 | 21802 ft | 438 kts | 316° |
| 2026-04-29 15:57 | 51.16917 | -7.46106 | 21308 ft | 434 kts | 316° |
| 2026-04-29 15:57 | 51.19101 | -7.49398 | 20821 ft | 430 kts | 316° |
| 2026-04-29 15:57 | 51.21269 | -7.52668 | 20345 ft | 427 kts | 316° |
| 2026-04-29 15:58 | 51.23420 | -7.55918 | 19866 ft | 425 kts | 316° |
| 2026-04-29 15:58 | 51.25557 | -7.59152 | 19392 ft | 422 kts | 316° |
| 2026-04-29 15:58 | 51.27680 | -7.62368 | 18918 ft | 420 kts | 317° |
| 2026-04-29 15:58 | 51.29794 | -7.65574 | 18466 ft | 418 kts | 317° |
| 2026-04-29 15:59 | 51.31868 | -7.68726 | 17944 ft | 416 kts | 317° |
| 2026-04-29 15:59 | 51.33957 | -7.71902 | 17434 ft | 413 kts | 318° |
| 2026-04-29 15:59 | 51.36024 | -7.75052 | 16976 ft | 409 kts | 318° |
| 2026-04-29 15:59 | 51.38072 | -7.78174 | 16501 ft | 405 kts | 318° |
| 2026-04-29 16:00 | 51.40104 | -7.81277 | 16035 ft | 402 kts | 318° |
| 2026-04-29 16:00 | 51.42119 | -7.84358 | 15587 ft | 399 kts | 318° |
| 2026-04-29 16:00 | 51.44119 | -7.87419 | 15138 ft | 396 kts | 318° |
| 2026-04-29 16:00 | 51.46105 | -7.90463 | 14696 ft | 394 kts | 318° |
| 2026-04-29 16:01 | 51.48001 | -7.93374 | 14268 ft | 392 kts | 318° |
| 2026-04-29 16:01 | 51.49963 | -7.96388 | 13803 ft | 390 kts | 318° |
| 2026-04-29 16:01 | 51.51917 | -7.99393 | 13300 ft | 388 kts | 318° |
| 2026-04-29 16:01 | 51.53855 | -8.02380 | 12826 ft | 385 kts | 318° |
| 2026-04-29 16:02 | 51.55789 | -8.05320 | 12391 ft | 380 kts | 321° |
| 2026-04-29 16:02 | 51.58014 | -8.07492 | 11971 ft | 370 kts | 340° |
| 2026-04-29 16:02 | 51.60374 | -8.09079 | 11544 ft | 367 kts | 341° |
| 2026-04-29 16:02 | 51.62718 | -8.10687 | 11110 ft | 365 kts | 340° |
| 2026-04-29 16:03 | 51.65011 | -8.12290 | 10949 ft | 354 kts | 340° |
| 2026-04-29 16:03 | 51.67204 | -8.13840 | 10789 ft | 344 kts | 340° |
| 2026-04-29 16:03 | 51.69365 | -8.15378 | 10639 ft | 334 kts | 340° |
| 2026-04-29 16:03 | 51.71462 | -8.16875 | 10506 ft | 325 kts | 340° |
| 2026-04-29 16:04 | 51.73504 | -8.18334 | 10370 ft | 317 kts | 340° |
| 2026-04-29 16:04 | 51.75491 | -8.19756 | 10248 ft | 308 kts | 340° |
| 2026-04-29 16:04 | 51.77429 | -8.21142 | 10046 ft | 302 kts | 340° |
| 2026-04-29 16:04 | 51.79347 | -8.22514 | 9756 ft | 300 kts | 340° |
| 2026-04-29 16:05 | 51.81251 | -8.23879 | 9489 ft | 298 kts | 340° |
| 2026-04-29 16:05 | 51.83143 | -8.25237 | 9206 ft | 297 kts | 340° |
| 2026-04-29 16:05 | 51.84999 | -8.26571 | 8935 ft | 295 kts | 340° |
| 2026-04-29 16:05 | 51.86870 | -8.27917 | 8663 ft | 293 kts | 340° |
| 2026-04-29 16:06 | 51.88727 | -8.29254 | 8400 ft | 291 kts | 340° |
| 2026-04-29 16:06 | 51.90572 | -8.30583 | 8125 ft | 290 kts | 340° |
| 2026-04-29 16:06 | 51.92415 | -8.31912 | 7856 ft | 289 kts | 341° |
| 2026-04-29 16:06 | 51.94251 | -8.33236 | 7582 ft | 288 kts | 341° |
| 2026-04-29 16:07 | 51.96076 | -8.34555 | 7320 ft | 287 kts | 340° |
| 2026-04-29 16:07 | 51.97898 | -8.35872 | 7040 ft | 286 kts | 341° |
| 2026-04-29 16:07 | 51.99712 | -8.37183 | 6771 ft | 285 kts | 340° |
| 2026-04-29 16:07 | 52.01497 | -8.38476 | 6543 ft | 282 kts | 340° |
| 2026-04-29 16:08 | 52.03266 | -8.39762 | 6422 ft | 276 kts | 340° |
| 2026-04-29 16:08 | 52.04982 | -8.41068 | 6291 ft | 271 kts | 332° |
| 2026-04-29 16:08 | 52.06297 | -8.43231 | 6157 ft | 272 kts | 299° |
| 2026-04-29 16:08 | 52.06794 | -8.46168 | 5839 ft | 273 kts | 268° |
| 2026-04-29 16:09 | 52.06503 | -8.49101 | 5795 ft | 255 kts | 249° |
| 2026-04-29 16:09 | 52.05914 | -8.51756 | 5568 ft | 247 kts | 246° |
| 2026-04-29 16:09 | 52.05300 | -8.54326 | 5277 ft | 242 kts | 246° |
| 2026-04-29 16:09 | 52.04709 | -8.56826 | 4859 ft | 238 kts | 245° |
| 2026-04-29 16:10 | 52.03798 | -8.58934 | 4422 ft | 223 kts | 207° |
| 2026-04-29 16:10 | 52.02415 | -8.59505 | 4105 ft | 197 kts | 164° |
| 2026-04-29 16:10 | 52.01128 | -8.58950 | 3854 ft | 190 kts | 159° |
| 2026-04-29 16:10 | 51.99866 | -8.58366 | 3602 ft | 187 kts | 156° |
| 2026-04-29 16:11 | 51.98647 | -8.57693 | 3366 ft | 183 kts | 154° |
| 2026-04-29 16:11 | 51.97460 | -8.56997 | 3108 ft | 179 kts | 153° |
| 2026-04-29 16:11 | 51.96304 | -8.56316 | 2883 ft | 175 kts | 152° |
| 2026-04-29 16:11 | 51.95172 | -8.55644 | 2630 ft | 172 kts | 151° |
| 2026-04-29 16:12 | 51.94065 | -8.54988 | 2417 ft | 168 kts | 151° |
| 2026-04-29 16:12 | 51.92978 | -8.54345 | 2195 ft | 169 kts | 151° |
| 2026-04-29 16:12 | 51.91875 | -8.53693 | 1951 ft | 166 kts | 151° |
| 2026-04-29 16:12 | 51.90823 | -8.53073 | 1755 ft | 158 kts | 150° |
| 2026-04-29 16:13 | 51.89804 | -8.52469 | 1515 ft | 154 kts | 150° |
| 2026-04-29 16:13 | 51.88800 | -8.51874 | 1354 ft | 152 kts | 150° |
| 2026-04-29 16:13 | 51.87801 | -8.51284 | 1104 ft | 155 kts | 150° |
| 2026-04-29 16:13 | 51.86785 | -8.50680 | 916 ft | 159 kts | 149° |
| 2026-04-29 16:14 | 51.85745 | -8.50064 | 690 ft | 159 kts | 149° |
| 2026-04-29 16:14 | 51.84731 | -8.49464 | 495 ft | 147 kts | 151° |
| 2026-04-29 16:14 | 51.84059 | -8.48862 | 467 ft | 60 kts | 156° |
| 2026-04-29 16:14 | 51.83810 | -8.48840 | 467 ft | 18 kts | 194° |
| 2026-04-29 16:15 | 51.83846 | -8.48947 | 468 ft | 15 kts | 340° |
| 2026-04-29 16:15 | 51.83969 | -8.49015 | 471 ft | 25 kts | 340° |
| 2026-04-29 16:15 | 51.84169 | -8.49132 | 473 ft | 34 kts | 340° |
| 2026-04-29 16:15 | 51.84316 | -8.49118 | 483 ft | 20 kts | 60° |
| 2026-04-29 16:16 | 51.84385 | -8.48985 | 488 ft | 15 kts | 0° |
| 2026-04-29 16:16 | 51.84481 | -8.49032 | 489 ft | 14 kts | 340° |
| 2026-04-29 16:16 | 51.84572 | -8.49087 | 496 ft | 14 kts | 339° |
| 2026-04-29 16:16 | 51.84659 | -8.49138 | 500 ft | 13 kts | 340° |
| 2026-04-29 16:17 | 51.84722 | -8.49175 | 502 ft | 6 kts | 340° |
| 2026-04-29 16:17 | 51.84762 | -8.49197 | 502 ft | 5 kts | 345° |
| 2026-04-29 16:17 | 51.84798 | -8.49210 | 502 ft | 5 kts | 353° |
| 2026-04-29 16:17 | 51.84821 | -8.49175 | 502 ft | 5 kts | 69° |
| 2026-04-29 16:18 | 51.84831 | -8.49125 | 502 ft | 5 kts | 70° |
| 2026-04-29 16:18 | 51.84841 | -8.49084 | 502 ft | 2 kts | 70° |
| 2026-04-29 16:18 | 51.84844 | -8.49068 | 502 ft | 1 kts | 70° |
| 2026-04-29 16:18 | 51.84846 | -8.49061 | 502 ft | 0 kts | 70° |